createdAt,value
2022-12-08T00:01:11.275Z,82907.22
2022-12-08T00:02:45.278Z,82897.34
2022-12-08T00:04:19.797Z,82905.25
2022-12-08T00:06:12.475Z,82897.34
2022-12-08T00:08:04.846Z,82897.34
2022-12-08T00:09:42.847Z,82897.34
2022-12-08T00:11:16.928Z,82972.59
2022-12-08T00:12:50.262Z,82901.28
2022-12-08T00:14:30.792Z,82992.41
2022-12-08T00:16:06.342Z,82895.34
2022-12-08T00:17:40.168Z,82895.34
2022-12-08T00:19:13.803Z,82903.28
2022-12-08T00:20:47.386Z,82994.38
2022-12-08T00:22:20.831Z,82907.22
2022-12-08T00:23:56.760Z,82932.97
2022-12-08T00:25:31.070Z,82889.41
2022-12-08T00:27:04.978Z,82879.50
2022-12-08T00:28:38.835Z,82857.72
2022-12-08T00:30:15.637Z,82851.78
2022-12-08T00:31:48.997Z,82899.31
2022-12-08T00:33:22.605Z,82853.75
2022-12-08T00:34:56.339Z,82861.69
2022-12-08T00:36:31.315Z,82887.44
2022-12-08T00:38:05.400Z,82861.69
2022-12-08T00:39:38.925Z,82851.78
2022-12-08T00:41:18.774Z,82873.56
2022-12-08T00:42:52.418Z,82893.38
2022-12-08T00:44:28.720Z,82889.41
2022-12-08T00:46:02.471Z,82889.41
2022-12-08T00:47:36.409Z,82881.50
2022-12-08T00:49:10.045Z,82871.59
2022-12-08T00:50:43.424Z,82881.50
2022-12-08T00:52:16.998Z,82899.31
2022-12-08T00:53:50.727Z,82911.19
2022-12-08T00:55:24.541Z,82917.13
2022-12-08T00:56:58.213Z,82905.25
2022-12-08T00:58:32.006Z,82901.28
2022-12-08T01:00:06.644Z,82899.31
2022-12-08T01:01:40.364Z,82897.34
2022-12-08T01:03:14.521Z,82956.75
2022-12-08T01:04:48.395Z,82925.06
2022-12-08T01:06:25.300Z,82901.28
2022-12-08T01:07:58.949Z,82893.38
2022-12-08T01:09:33.206Z,82895.34
2022-12-08T01:11:09.372Z,82897.34
2022-12-08T01:12:45.558Z,82887.44
2022-12-08T01:14:21.982Z,82889.41
2022-12-08T01:15:56.145Z,82889.41
2022-12-08T01:17:29.649Z,82895.34
2022-12-08T01:19:05.072Z,82934.97
2022-12-08T01:20:39.157Z,82887.44
2022-12-08T01:22:12.657Z,82881.50
2022-12-08T01:23:46.668Z,82877.53
2022-12-08T01:25:20.717Z,82865.66
2022-12-08T01:26:54.493Z,82873.56
2022-12-08T01:28:31.604Z,82867.63
2022-12-08T01:30:06.303Z,82867.63
2022-12-08T01:31:40.844Z,82909.22
2022-12-08T01:33:17.603Z,82869.59
2022-12-08T01:34:55.909Z,82873.56
2022-12-08T01:36:31.181Z,82879.50
2022-12-08T01:38:05.091Z,82881.50
2022-12-08T01:39:41.655Z,82881.50
2022-12-08T01:41:20.371Z,82875.53
2022-12-08T01:42:54.055Z,82861.69
2022-12-08T01:44:27.574Z,82857.72
2022-12-08T01:46:01.412Z,82861.69
2022-12-08T01:47:41.095Z,82873.56
2022-12-08T01:49:17.220Z,82885.44
2022-12-08T01:50:52.179Z,82893.38
2022-12-08T01:52:51.199Z,82907.22
2022-12-08T01:54:28.692Z,82893.38
2022-12-08T01:56:28.653Z,82905.25
2022-12-08T01:58:33.080Z,82929.03
2022-12-08T02:00:10.195Z,82929.03
2022-12-08T02:01:44.381Z,82932.97
2022-12-08T02:03:25.030Z,82938.91
2022-12-08T02:04:59.010Z,82938.91
2022-12-08T02:06:37.102Z,82936.94
2022-12-08T02:08:13.349Z,82944.88
2022-12-08T02:09:47.167Z,83022.09
2022-12-08T02:11:20.644Z,82956.75
2022-12-08T02:12:57.041Z,82966.66
2022-12-08T02:14:30.518Z,82976.56
2022-12-08T02:16:43.919Z,82962.69
2022-12-08T02:18:26.496Z,82968.63
2022-12-08T02:20:28.354Z,82972.59
2022-12-08T02:22:07.912Z,82986.47
2022-12-08T02:23:56.403Z,82982.50
2022-12-08T02:25:40.868Z,82992.41
2022-12-08T02:27:49.766Z,82984.47
2022-12-08T02:29:41.623Z,82988.44
2022-12-08T02:31:33.740Z,83000.31
2022-12-08T02:33:13.174Z,83035.97
2022-12-08T02:35:10.639Z,83063.69
2022-12-08T02:37:24.892Z,83067.66
2022-12-08T02:39:42.676Z,83051.81
2022-12-08T02:41:21.838Z,83041.91
2022-12-08T02:43:01.039Z,83047.84
2022-12-08T02:44:46.547Z,83043.88
2022-12-08T02:46:28.163Z,83043.88
2022-12-08T02:48:01.614Z,83136.97
2022-12-08T02:49:36.123Z,83035.97
2022-12-08T02:51:09.776Z,83035.97
2022-12-08T02:52:47.597Z,83035.97
2022-12-08T02:54:20.904Z,83028.03
2022-12-08T02:56:17.814Z,83030.03
2022-12-08T02:58:09.795Z,83012.19
2022-12-08T03:00:01.266Z,83000.31
2022-12-08T03:01:43.842Z,83008.25
2022-12-08T03:03:25.259Z,83006.25
2022-12-08T03:05:10.090Z,83008.25
2022-12-08T03:06:58.814Z,83002.31
2022-12-08T03:08:57.782Z,82994.38
2022-12-08T03:10:36.597Z,82988.44
2022-12-08T03:12:15.128Z,82994.38
2022-12-08T03:13:55.089Z,83034.00
2022-12-08T03:15:31.984Z,83016.16
2022-12-08T03:17:06.439Z,82988.44
2022-12-08T03:18:46.973Z,82982.50
2022-12-08T03:20:24.638Z,82956.75
2022-12-08T03:22:03.660Z,82956.75
2022-12-08T03:23:38.924Z,82946.84
2022-12-08T03:25:15.830Z,82944.88
2022-12-08T03:26:52.500Z,82944.88
2022-12-08T03:28:26.449Z,82932.97
2022-12-08T03:30:01.133Z,82950.81
2022-12-08T03:31:40.383Z,82913.19
2022-12-08T03:33:24.373Z,82909.22
2022-12-08T03:35:04.576Z,82891.38
2022-12-08T03:36:38.617Z,82905.25
2022-12-08T03:38:15.885Z,82891.38
2022-12-08T03:39:49.409Z,82893.38
2022-12-08T03:41:23.832Z,82879.50
2022-12-08T03:42:57.367Z,82885.44
2022-12-08T03:44:31.583Z,82895.34
2022-12-08T03:46:05.506Z,82893.38
2022-12-08T03:47:39.271Z,82913.19
2022-12-08T03:49:12.802Z,82934.97
2022-12-08T03:50:49.194Z,82944.88
2022-12-08T03:52:22.705Z,82958.72
2022-12-08T03:53:56.911Z,82966.66
2022-12-08T03:55:30.240Z,82956.75
2022-12-08T03:57:03.890Z,82968.63
2022-12-08T03:58:37.635Z,82964.66
2022-12-08T04:00:15.941Z,82972.59
2022-12-08T04:01:49.576Z,82988.44
2022-12-08T04:03:23.319Z,82992.41
2022-12-08T04:04:57.316Z,82992.41
2022-12-08T04:06:30.859Z,82984.47
2022-12-08T04:08:04.353Z,82968.63
2022-12-08T04:09:39.476Z,83000.31
2022-12-08T04:11:13.191Z,83004.28
2022-12-08T04:12:46.486Z,83035.97
2022-12-08T04:14:19.887Z,83075.59
2022-12-08T04:15:53.873Z,83057.75
2022-12-08T04:17:30.400Z,83049.84
2022-12-08T04:19:04.476Z,83057.75
2022-12-08T04:20:42.269Z,83045.88
2022-12-08T04:22:18.885Z,83071.63
2022-12-08T04:23:54.924Z,83063.69
2022-12-08T04:25:30.975Z,83063.69
2022-12-08T04:27:04.612Z,83051.81
2022-12-08T04:28:38.450Z,83043.88
2022-12-08T04:30:12.178Z,83041.91
2022-12-08T04:31:45.727Z,83026.06
2022-12-08T04:33:19.426Z,83026.06
2022-12-08T04:34:52.887Z,83020.13
2022-12-08T04:36:26.186Z,83012.19
2022-12-08T04:38:00.006Z,83000.31
2022-12-08T04:39:33.605Z,83026.06
2022-12-08T04:41:07.899Z,83049.84
2022-12-08T04:42:42.042Z,83020.13
2022-12-08T04:44:15.378Z,83006.25
2022-12-08T04:45:49.235Z,82978.53
2022-12-08T04:47:22.890Z,83004.28
2022-12-08T04:48:56.253Z,83039.94
2022-12-08T04:50:32.744Z,83022.09
2022-12-08T04:52:06.428Z,82996.34
2022-12-08T04:53:44.886Z,82968.63
2022-12-08T04:55:20.007Z,82875.53
2022-12-08T04:56:53.671Z,82772.56
2022-12-08T04:58:27.287Z,82711.16
2022-12-08T05:00:01.172Z,82651.75
2022-12-08T05:01:36.254Z,82616.09
2022-12-08T05:03:10.523Z,82532.94
2022-12-08T05:04:44.146Z,82469.56
2022-12-08T05:06:17.714Z,82426.00
2022-12-08T05:07:51.373Z,82376.50
2022-12-08T05:09:25.175Z,82408.19
2022-12-08T05:11:09.638Z,82289.38
2022-12-08T05:12:43.353Z,82251.75
2022-12-08T05:14:18.878Z,82222.03
2022-12-08T05:15:52.598Z,82182.44
2022-12-08T05:17:26.047Z,82158.66
2022-12-08T05:18:59.713Z,82128.97
2022-12-08T05:20:33.135Z,82136.88
2022-12-08T05:22:06.928Z,82148.78
2022-12-08T05:23:40.835Z,82107.19
2022-12-08T05:25:15.824Z,82089.38
2022-12-08T05:26:49.697Z,82196.28
2022-12-08T05:30:17.204Z,82099.25
2022-12-08T05:31:53.679Z,82077.47
2022-12-08T05:33:30.014Z,82037.88
2022-12-08T05:35:04.060Z,81988.38
2022-12-08T05:36:37.672Z,81909.19
2022-12-08T05:38:11.972Z,81907.19
2022-12-08T05:39:45.923Z,81903.25
2022-12-08T05:41:21.666Z,81899.28
2022-12-08T05:42:58.426Z,81855.72
2022-12-08T05:44:32.578Z,81831.97
2022-12-08T05:46:09.828Z,81901.25
2022-12-08T05:47:43.618Z,82033.94
2022-12-08T05:49:17.930Z,82041.84
2022-12-08T05:50:52.406Z,82069.56
2022-12-08T05:52:26.308Z,82077.47
2022-12-08T05:53:59.740Z,82156.69
2022-12-08T05:55:33.270Z,82249.75
2022-12-08T05:57:07.263Z,82257.69
2022-12-08T05:58:41.329Z,82166.59
2022-12-08T06:00:15.560Z,82103.22
2022-12-08T06:01:52.064Z,81962.66
2022-12-08T06:03:26.318Z,81861.66
2022-12-08T06:05:00.055Z,81748.81
2022-12-08T06:06:37.434Z,81766.63
2022-12-08T06:08:12.202Z,81717.13
2022-12-08T06:09:46.059Z,81760.69
2022-12-08T06:11:26.016Z,81796.31
2022-12-08T06:12:59.928Z,81804.25
2022-12-08T06:14:35.710Z,81788.41
2022-12-08T06:16:09.389Z,81691.38
2022-12-08T06:17:43.443Z,81689.41
2022-12-08T06:19:17.138Z,81681.47
2022-12-08T06:20:56.874Z,81772.56
2022-12-08T06:22:30.728Z,81679.50
2022-12-08T06:24:04.434Z,81744.84
2022-12-08T06:25:40.608Z,81875.53
2022-12-08T06:27:14.282Z,81871.56
2022-12-08T06:28:48.333Z,81829.97
2022-12-08T06:30:22.450Z,81847.81
2022-12-08T06:31:56.407Z,81889.38
2022-12-08T06:33:30.554Z,81792.38
2022-12-08T06:35:04.665Z,81867.59
2022-12-08T06:36:38.765Z,81812.16
2022-12-08T06:38:12.575Z,81869.59
2022-12-08T06:39:46.907Z,81915.13
2022-12-08T06:41:23.101Z,81883.44
2022-12-08T06:43:00.163Z,81928.97
2022-12-08T06:44:33.510Z,82016.09
2022-12-08T06:46:10.053Z,82099.25
2022-12-08T06:47:44.352Z,82065.59
2022-12-08T06:49:17.810Z,81986.41
2022-12-08T06:50:51.352Z,81956.69
2022-12-08T06:52:25.408Z,81938.88
2022-12-08T06:53:59.298Z,81950.75
2022-12-08T06:57:27.417Z,82033.94
2022-12-08T06:59:01.400Z,82047.78
2022-12-08T07:00:35.139Z,82065.59
2022-12-08T07:02:14.673Z,82105.22
2022-12-08T07:03:48.478Z,82033.94
2022-12-08T07:05:21.900Z,82014.13
2022-12-08T07:06:55.666Z,82006.19
2022-12-08T07:08:29.172Z,82083.44
2022-12-08T07:10:03.478Z,82055.69
2022-12-08T07:11:46.779Z,82012.16
2022-12-08T07:13:24.749Z,81998.28
2022-12-08T07:15:00.445Z,81990.38
2022-12-08T07:16:34.730Z,81988.38
2022-12-08T07:18:08.315Z,81966.59
2022-12-08T07:19:41.753Z,81972.53
2022-12-08T07:21:16.905Z,82053.72
2022-12-08T07:22:52.161Z,82049.75
2022-12-08T07:24:28.860Z,82071.53
2022-12-08T07:26:03.985Z,82043.81
2022-12-08T07:27:37.561Z,82026.00
2022-12-08T07:29:12.012Z,82012.16
2022-12-08T07:30:45.834Z,81998.28
2022-12-08T07:32:19.758Z,81992.34
2022-12-08T07:33:54.010Z,81982.44
2022-12-08T07:35:28.035Z,82045.81
2022-12-08T07:37:01.552Z,82152.72
2022-12-08T07:38:35.318Z,82136.88
2022-12-08T07:40:10.231Z,82144.81
2022-12-08T07:41:43.781Z,82150.75
2022-12-08T07:43:17.657Z,82140.84
2022-12-08T07:44:51.603Z,82180.44
2022-12-08T07:46:26.367Z,82186.41
2022-12-08T07:48:00.344Z,82186.41
2022-12-08T07:49:33.831Z,82134.91
2022-12-08T07:51:07.759Z,82097.28
2022-12-08T07:52:41.448Z,82168.56
2022-12-08T07:54:15.163Z,82196.28
2022-12-08T07:55:53.052Z,82134.91
2022-12-08T07:57:26.810Z,82103.22
2022-12-08T07:59:03.068Z,82077.47
2022-12-08T08:00:36.629Z,82067.59
2022-12-08T08:02:24.662Z,82097.28
2022-12-08T08:04:04.926Z,82123.03
2022-12-08T08:05:38.883Z,82138.88
2022-12-08T08:07:12.958Z,82208.19
2022-12-08T08:08:46.987Z,82251.75
2022-12-08T08:10:20.231Z,82253.72
2022-12-08T08:12:14.719Z,82198.28
2022-12-08T08:13:49.745Z,82132.94
2022-12-08T08:15:23.187Z,82089.38
2022-12-08T08:16:57.304Z,82061.66
2022-12-08T08:18:31.043Z,82047.78
2022-12-08T08:20:07.530Z,82026.00
2022-12-08T08:21:46.075Z,82026.00
2022-12-08T08:23:20.350Z,82027.97
2022-12-08T08:24:57.035Z,82014.13
2022-12-08T08:26:30.834Z,82004.22
2022-12-08T08:28:05.045Z,82026.00
2022-12-08T08:29:51.079Z,82026.00
2022-12-08T08:31:27.727Z,82061.66
2022-12-08T08:33:01.620Z,82033.94
2022-12-08T08:34:39.604Z,82160.66
2022-12-08T08:36:13.312Z,82226.00
2022-12-08T08:37:49.174Z,82247.78
2022-12-08T08:39:23.160Z,82231.94
2022-12-08T08:40:56.884Z,82164.63
2022-12-08T08:42:30.326Z,82136.88
2022-12-08T08:44:05.349Z,82071.53
2022-12-08T08:45:38.907Z,82071.53
2022-12-08T08:47:12.455Z,82057.69
2022-12-08T08:48:46.442Z,82033.94
2022-12-08T08:50:19.770Z,82101.25
2022-12-08T08:51:53.560Z,82067.59
2022-12-08T08:53:27.287Z,82045.81
2022-12-08T08:55:01.269Z,82085.41
2022-12-08T08:56:34.516Z,82119.06
2022-12-08T08:58:08.122Z,82154.72
2022-12-08T08:59:41.948Z,82123.03
2022-12-08T09:01:27.455Z,82134.91
2022-12-08T09:03:01.185Z,82105.22
2022-12-08T09:04:35.199Z,82073.53
2022-12-08T09:06:12.234Z,82026.00
2022-12-08T09:07:45.595Z,82020.06
2022-12-08T09:09:19.175Z,82008.19
2022-12-08T09:10:53.166Z,81986.41
2022-12-08T09:12:27.186Z,82067.59
2022-12-08T09:14:00.593Z,82067.59
2022-12-08T09:15:34.570Z,82077.47
2022-12-08T09:17:08.977Z,82111.16
2022-12-08T09:18:42.563Z,82065.59
2022-12-08T09:20:16.106Z,82089.38
2022-12-08T09:21:50.018Z,82031.94
2022-12-08T09:23:23.671Z,82018.09
2022-12-08T09:24:57.313Z,82117.09
2022-12-08T09:26:33.943Z,82089.38
2022-12-08T09:28:07.404Z,82103.22
2022-12-08T09:29:41.626Z,82061.66
2022-12-08T09:31:15.386Z,82071.53
2022-12-08T09:32:49.643Z,82069.56
2022-12-08T09:34:23.624Z,82051.75
2022-12-08T09:35:57.169Z,82010.16
2022-12-08T09:37:30.553Z,81974.53
2022-12-08T09:39:05.270Z,82000.25
2022-12-08T09:40:50.322Z,81986.41
2022-12-08T09:42:48.413Z,81982.44
2022-12-08T09:44:45.103Z,81980.47
2022-12-08T09:46:19.957Z,81978.47
2022-12-08T09:48:03.415Z,81960.66
2022-12-08T09:49:42.547Z,81982.44
2022-12-08T09:51:16.848Z,81952.75
2022-12-08T09:53:09.582Z,81946.81
2022-12-08T09:54:48.896Z,81954.72
2022-12-08T09:56:25.500Z,82012.16
2022-12-08T09:58:03.677Z,81954.72
2022-12-08T09:59:37.252Z,81942.84
2022-12-08T10:01:12.568Z,81998.28
2022-12-08T10:02:48.031Z,81942.84
2022-12-08T10:04:29.886Z,81954.72
2022-12-08T10:06:22.149Z,81940.84
2022-12-08T10:08:19.651Z,81950.75
2022-12-08T10:09:59.127Z,81944.81
2022-12-08T10:11:51.363Z,81944.81
2022-12-08T10:13:43.136Z,81976.50
2022-12-08T10:15:41.019Z,81954.72
2022-12-08T10:17:37.012Z,81962.66
2022-12-08T10:19:22.417Z,81966.59
2022-12-08T10:21:06.099Z,81988.38
2022-12-08T10:22:44.485Z,81994.31
2022-12-08T10:24:32.840Z,81986.41
2022-12-08T10:26:18.522Z,81978.47
2022-12-08T10:27:55.588Z,81998.28
2022-12-08T10:29:29.161Z,81994.31
2022-12-08T10:31:02.975Z,81998.28
2022-12-08T10:32:36.875Z,81996.31
2022-12-08T10:34:24.611Z,82006.19
2022-12-08T10:36:02.310Z,82010.16
2022-12-08T10:37:37.019Z,82012.16
2022-12-08T10:39:35.939Z,82022.03
2022-12-08T10:41:12.605Z,82039.88
2022-12-08T10:42:51.628Z,82057.69
2022-12-08T10:44:25.580Z,82103.22
2022-12-08T10:46:13.386Z,82085.41
2022-12-08T10:48:05.664Z,82097.28
2022-12-08T10:49:42.328Z,82101.25
2022-12-08T10:51:30.524Z,82079.47
2022-12-08T10:53:04.164Z,82061.66
2022-12-08T10:54:39.143Z,82097.28
2022-12-08T10:56:16.926Z,82057.69
2022-12-08T10:57:50.727Z,82067.59
2022-12-08T10:59:27.408Z,82069.56
2022-12-08T11:01:06.731Z,82061.66
2022-12-08T11:03:13.966Z,82061.66
2022-12-08T11:05:01.416Z,82073.53
2022-12-08T11:06:40.808Z,82089.38
2022-12-08T11:08:17.327Z,82101.25
2022-12-08T11:09:55.803Z,82101.25
2022-12-08T11:11:46.246Z,82103.22
2022-12-08T11:13:27.187Z,82136.88
2022-12-08T11:15:03.973Z,82172.53
2022-12-08T11:16:37.875Z,82156.69
2022-12-08T11:18:25.080Z,82184.41
2022-12-08T11:20:05.619Z,82178.47
2022-12-08T11:21:40.515Z,82168.56
2022-12-08T11:23:23.068Z,82162.63
2022-12-08T11:25:08.624Z,82164.63
2022-12-08T11:26:50.106Z,82168.56
2022-12-08T11:28:25.469Z,82172.53
2022-12-08T11:29:59.285Z,82176.50
2022-12-08T11:31:43.054Z,82176.50
2022-12-08T11:33:26.094Z,82186.41
2022-12-08T11:35:04.294Z,82190.34
2022-12-08T11:36:39.419Z,82208.19
2022-12-08T11:38:23.366Z,82204.22
2022-12-08T11:40:02.034Z,82220.06
2022-12-08T11:41:43.595Z,82218.06
2022-12-08T11:43:35.169Z,82229.97
2022-12-08T11:45:16.711Z,82247.78
2022-12-08T11:47:00.275Z,82251.75
2022-12-08T11:48:41.302Z,82257.69
2022-12-08T11:50:28.420Z,82269.56
2022-12-08T11:52:21.912Z,82267.59
2022-12-08T11:54:15.781Z,82279.47
2022-12-08T11:55:57.963Z,82279.47
2022-12-08T11:57:31.728Z,82273.53
2022-12-08T11:59:17.556Z,82275.50
2022-12-08T12:00:50.896Z,82291.34
2022-12-08T12:02:43.126Z,82299.25
2022-12-08T12:04:34.044Z,82311.16
2022-12-08T12:06:37.614Z,82326.97
2022-12-08T12:08:21.541Z,82344.81
2022-12-08T12:10:25.352Z,82358.66
2022-12-08T12:12:20.331Z,82360.66
2022-12-08T12:14:20.350Z,82426.00
2022-12-08T12:15:56.514Z,82358.66
2022-12-08T12:17:55.128Z,82344.81
2022-12-08T12:19:34.233Z,82344.81
2022-12-08T12:21:13.634Z,82348.78
2022-12-08T12:22:52.120Z,82402.25
2022-12-08T12:24:36.221Z,82380.44
2022-12-08T12:26:22.960Z,82358.66
2022-12-08T12:28:02.581Z,82354.72
2022-12-08T12:29:39.476Z,82396.28
2022-12-08T12:31:19.003Z,82344.81
2022-12-08T12:33:03.039Z,82332.94
2022-12-08T12:34:50.790Z,82424.03
2022-12-08T12:36:26.081Z,82342.81
2022-12-08T12:38:31.545Z,82330.94
2022-12-08T12:40:22.595Z,82340.84
2022-12-08T12:42:00.165Z,82354.72
2022-12-08T12:43:36.797Z,82374.50
2022-12-08T12:45:16.991Z,82374.50
2022-12-08T12:46:50.438Z,82380.44
2022-12-08T12:48:26.114Z,82398.28
2022-12-08T12:50:08.203Z,82390.34
2022-12-08T12:51:41.473Z,82386.41
2022-12-08T12:53:18.294Z,82410.16
2022-12-08T12:54:53.816Z,82386.41
2022-12-08T12:56:56.098Z,82394.31
2022-12-08T12:58:32.110Z,82390.34
2022-12-08T13:00:05.756Z,82382.44
2022-12-08T13:01:55.128Z,82378.47
2022-12-08T13:03:29.181Z,82384.41
2022-12-08T13:05:18.996Z,82372.53
2022-12-08T13:06:53.630Z,82364.63
2022-12-08T13:08:28.967Z,82356.69
2022-12-08T13:10:40.076Z,82354.72
2022-12-08T13:12:23.589Z,82366.59
2022-12-08T13:14:04.830Z,82354.72
2022-12-08T13:15:49.453Z,82350.75
2022-12-08T13:17:32.545Z,82366.59
2022-12-08T13:19:14.527Z,82372.53
2022-12-08T13:20:52.375Z,82406.19
2022-12-08T13:22:48.547Z,82431.94
2022-12-08T13:24:25.151Z,82439.84
2022-12-08T13:26:19.156Z,82455.69
2022-12-08T13:27:54.951Z,82449.75
2022-12-08T13:29:28.755Z,82437.88
2022-12-08T13:31:03.944Z,82429.97
2022-12-08T13:35:00.767Z,82422.03
2022-12-08T13:36:44.354Z,82426.00
2022-12-08T13:38:23.445Z,82420.06
2022-12-08T13:40:06.082Z,82441.84
2022-12-08T13:41:45.086Z,82394.31
2022-12-08T13:43:44.823Z,82394.31
2022-12-08T13:46:20.157Z,82386.41
2022-12-08T13:47:34.701Z,82370.56
2022-12-08T13:50:47.883Z,82372.53
2022-12-08T13:54:45.778Z,82400.25
2022-12-08T13:57:38.247Z,82418.06
2022-12-08T13:59:34.373Z,82414.13
2022-12-08T14:01:22.152Z,82410.16
2022-12-08T14:03:02.813Z,82408.19
2022-12-08T14:05:16.415Z,82404.22
2022-12-08T14:06:43.524Z,82396.28
2022-12-08T14:08:59.278Z,82390.34
2022-12-08T14:10:32.749Z,82398.28
2022-12-08T14:12:19.684Z,82382.44
2022-12-08T14:13:53.408Z,82382.44
2022-12-08T14:15:31.248Z,82370.56
2022-12-08T14:17:12.663Z,82362.63
2022-12-08T14:18:46.527Z,82362.63
2022-12-08T14:20:28.365Z,82354.72
2022-12-08T14:22:02.981Z,82350.75
2022-12-08T14:23:36.996Z,82354.72
2022-12-08T14:25:20.983Z,82354.72
2022-12-08T14:26:58.828Z,82338.88
2022-12-08T14:28:43.009Z,82346.78
2022-12-08T14:30:25.343Z,82358.66
2022-12-08T14:31:58.877Z,82350.75
2022-12-08T14:33:35.373Z,82352.72
2022-12-08T14:35:09.320Z,82350.75
2022-12-08T14:36:43.219Z,82364.63
2022-12-08T14:38:19.027Z,82376.50
2022-12-08T14:39:54.689Z,82394.31
2022-12-08T14:41:35.764Z,82386.41
2022-12-08T14:43:15.398Z,82398.28
2022-12-08T14:44:48.827Z,82398.28
2022-12-08T14:46:23.878Z,82386.41
2022-12-08T14:47:57.415Z,82384.41
2022-12-08T14:49:36.428Z,82368.56
2022-12-08T14:51:15.786Z,82390.34
2022-12-08T14:52:49.109Z,82394.31
2022-12-08T14:54:22.372Z,82394.31
2022-12-08T14:55:55.959Z,82406.19
2022-12-08T14:57:35.286Z,82400.25
2022-12-08T14:59:21.686Z,82408.19
2022-12-08T15:01:00.451Z,82406.19
2022-12-08T15:02:35.009Z,82402.25
2022-12-08T15:04:15.197Z,82406.19
2022-12-08T15:05:52.726Z,82406.19
2022-12-08T15:07:30.679Z,82410.16
2022-12-08T15:09:18.297Z,82406.19
2022-12-08T15:11:31.663Z,82410.16
2022-12-08T15:13:22.874Z,82414.13
2022-12-08T15:14:56.684Z,82418.06
2022-12-08T15:16:43.550Z,82414.13
2022-12-08T15:18:43.823Z,82422.03
2022-12-08T15:20:43.480Z,82416.09
2022-12-08T15:22:23.237Z,82441.84
2022-12-08T15:23:57.149Z,82443.81
2022-12-08T15:25:30.576Z,82445.81
2022-12-08T15:27:04.688Z,82449.75
2022-12-08T15:28:37.979Z,82445.81
2022-12-08T15:30:16.630Z,82447.78
2022-12-08T15:31:52.960Z,82479.47
2022-12-08T15:33:26.715Z,82437.88
2022-12-08T15:35:00.137Z,82447.78
2022-12-08T15:36:33.488Z,82445.81
2022-12-08T15:38:07.930Z,82441.84
2022-12-08T15:39:41.147Z,82431.94
2022-12-08T15:41:15.369Z,82433.91
2022-12-08T15:42:50.437Z,82439.84
2022-12-08T15:44:23.705Z,82467.59
2022-12-08T15:46:00.073Z,82453.72
2022-12-08T15:47:35.271Z,82473.53
2022-12-08T15:49:19.626Z,82473.53
2022-12-08T15:50:53.623Z,82483.44
2022-12-08T15:52:26.729Z,82467.59
2022-12-08T15:54:00.228Z,82469.56
2022-12-08T15:55:38.662Z,82461.66
2022-12-08T15:57:35.925Z,82469.56
2022-12-08T15:59:18.363Z,82532.94
2022-12-08T16:00:54.479Z,82469.56
2022-12-08T16:02:49.136Z,82461.66
2022-12-08T16:08:44.588Z,82445.81
2022-12-08T16:10:18.255Z,82469.56
2022-12-08T16:12:10.629Z,82473.53
2022-12-08T16:13:58.964Z,82473.53
2022-12-08T16:16:01.093Z,82477.50
2022-12-08T16:17:35.703Z,82477.50
2022-12-08T16:19:14.535Z,82477.50
2022-12-08T16:22:56.431Z,82501.25
2022-12-08T16:24:37.487Z,82477.50
2022-12-08T16:26:28.928Z,82473.53
2022-12-08T16:28:45.411Z,82495.31
2022-12-08T16:30:08.119Z,82445.81
2022-12-08T16:31:41.807Z,82441.84
2022-12-08T16:33:15.894Z,82439.84
2022-12-08T16:34:50.308Z,82445.81
2022-12-08T16:36:23.832Z,82477.50
2022-12-08T16:37:57.288Z,82418.06
2022-12-08T16:39:30.765Z,82414.13
2022-12-08T16:41:23.184Z,82416.09
2022-12-08T16:42:59.387Z,82431.94
2022-12-08T16:44:32.923Z,82459.66
2022-12-08T16:46:06.425Z,82445.81
2022-12-08T16:47:43.188Z,82453.72
2022-12-08T16:49:16.842Z,82477.50
2022-12-08T16:50:53.038Z,82489.38
2022-12-08T16:52:26.559Z,82493.34
2022-12-08T16:53:59.953Z,82515.13
2022-12-08T16:55:34.977Z,82536.91
2022-12-08T16:57:08.693Z,82544.81
2022-12-08T16:58:42.032Z,82562.63
2022-12-08T17:00:21.622Z,82586.41
2022-12-08T17:01:55.168Z,82588.38
2022-12-08T17:03:30.829Z,82598.28
2022-12-08T17:05:05.346Z,82604.22
2022-12-08T17:06:39.005Z,82602.25
2022-12-08T17:08:13.722Z,82592.34
2022-12-08T17:09:46.998Z,82598.28
2022-12-08T17:11:26.849Z,82598.28
2022-12-08T17:13:01.536Z,82610.16
2022-12-08T17:14:35.879Z,82620.06
2022-12-08T17:16:18.144Z,82626.00
2022-12-08T17:17:52.617Z,82629.97
2022-12-08T17:19:26.527Z,82631.94
2022-12-08T17:21:00.532Z,82626.00
2022-12-08T17:22:36.132Z,82631.94
2022-12-08T17:24:09.575Z,82635.91
2022-12-08T17:25:45.669Z,82639.88
2022-12-08T17:27:19.286Z,82655.72
2022-12-08T17:29:01.401Z,82651.75
2022-12-08T17:30:35.525Z,82663.63
2022-12-08T17:32:09.545Z,82661.66
2022-12-08T17:33:43.525Z,82659.69
2022-12-08T17:35:17.987Z,82669.59
2022-12-08T17:36:54.657Z,82655.72
2022-12-08T17:38:28.842Z,82655.72
2022-12-08T17:40:03.101Z,82645.81
2022-12-08T17:41:37.249Z,82663.63
2022-12-08T17:43:12.531Z,82647.78
2022-12-08T17:44:47.102Z,82655.72
2022-12-08T17:46:22.023Z,82639.88
2022-12-08T17:47:55.995Z,82639.88
2022-12-08T17:49:30.848Z,82641.84
2022-12-08T17:51:05.398Z,82639.88
2022-12-08T17:52:39.166Z,82624.03
2022-12-08T17:54:12.783Z,82616.09
2022-12-08T17:55:56.607Z,82629.97
2022-12-08T17:57:30.389Z,82624.03
2022-12-08T17:59:05.195Z,82647.78
2022-12-08T18:00:42.274Z,82643.84
2022-12-08T18:02:16.029Z,82643.84
2022-12-08T18:03:49.901Z,82647.78
2022-12-08T18:05:24.037Z,82655.72
2022-12-08T18:07:00.730Z,82655.72
2022-12-08T18:08:34.490Z,82675.53
2022-12-08T18:10:08.847Z,82655.72
2022-12-08T18:11:43.871Z,82655.72
2022-12-08T18:13:17.413Z,82655.72
2022-12-08T18:14:53.029Z,82669.59
2022-12-08T18:16:30.871Z,82671.56
2022-12-08T18:18:04.591Z,82677.50
2022-12-08T18:19:38.572Z,82683.44
2022-12-08T18:21:13.015Z,82679.47
2022-12-08T18:22:46.628Z,82675.53
2022-12-08T18:24:23.706Z,82669.59
2022-12-08T18:25:57.181Z,82667.59
2022-12-08T18:27:30.591Z,82651.75
2022-12-08T18:29:04.430Z,82641.84
2022-12-08T18:30:38.037Z,82649.78
2022-12-08T18:32:11.513Z,82641.84
2022-12-08T18:33:48.695Z,82762.66
2022-12-08T18:35:22.224Z,82647.78
2022-12-08T18:36:55.807Z,82631.94
2022-12-08T18:38:29.088Z,82616.09
2022-12-08T18:40:03.074Z,82602.25
2022-12-08T18:41:36.979Z,82602.25
2022-12-08T18:43:10.190Z,82590.38
2022-12-08T18:44:43.897Z,82582.44
2022-12-08T18:46:18.310Z,82576.50
2022-12-08T18:47:52.710Z,82572.53
2022-12-08T18:49:27.000Z,82568.59
2022-12-08T18:51:00.402Z,82562.63
2022-12-08T18:52:34.807Z,82628.00
2022-12-08T18:54:08.593Z,82558.69
2022-12-08T18:55:42.022Z,82568.59
2022-12-08T18:57:17.816Z,82572.53
2022-12-08T18:58:51.323Z,82566.59
2022-12-08T19:00:25.720Z,82556.69
2022-12-08T19:01:59.889Z,82564.63
2022-12-08T19:03:33.918Z,82582.44
2022-12-08T19:05:08.793Z,82584.44
2022-12-08T19:06:45.260Z,82596.31
2022-12-08T19:08:18.821Z,82582.44
2022-12-08T19:09:52.576Z,82564.63
2022-12-08T19:11:29.188Z,82558.69
2022-12-08T19:13:02.991Z,82552.75
2022-12-08T19:14:36.490Z,82548.78
2022-12-08T19:16:10.046Z,82550.75
2022-12-08T19:17:43.719Z,82552.75
2022-12-08T19:19:17.124Z,82548.78
2022-12-08T19:20:50.785Z,82540.84
2022-12-08T19:22:24.396Z,82528.97
2022-12-08T19:23:59.044Z,82515.13
2022-12-08T19:25:32.816Z,82517.09
2022-12-08T19:27:06.691Z,82509.16
2022-12-08T19:28:41.616Z,82505.22
2022-12-08T19:30:15.764Z,82501.25